Time;durP1;ratioP1;P1;durP2;ratioP2;P2;SDS_P1;SDS_P2;PMS_P1;PMS_P2;Temp;Humidity;BMP_temperature;BMP_pressure;BME280_temperature;BME280_humidity;BME280_pressure;Samples;Min_cycle;Max_cycle;Signal;HPM_P1;HPM_P2
2021/09/27 00:00:29;;;;;;;13.27;11.87;;;17.50;99.90;;;;;;5041883;28;20199;-54
2021/09/27 00:02:57;;;;;;;13.37;12.07;;;17.50;99.90;;;;;;5038052;28;20199;-47
2021/09/27 00:05:25;;;;;;;14.27;12.90;;;17.60;99.90;;;;;;5042182;28;20213;-53
2021/09/27 00:07:52;;;;;;;16.00;13.87;;;17.50;99.90;;;;;;5029873;28;20227;-49
2021/09/27 00:10:23;;;;;;;15.60;14.00;;;17.50;99.90;;;;;;5043113;28;20196;-53
2021/09/27 00:12:50;;;;;;;15.57;13.87;;;17.50;99.90;;;;;;5044169;28;20211;-49
2021/09/27 00:15:21;;;;;;;15.70;14.10;;;17.50;99.90;;;;;;5043645;28;20202;-54
2021/09/27 00:17:48;;;;;;;18.23;14.23;;;17.50;99.90;;;;;;5036723;28;20227;-50
2021/09/27 00:20:16;;;;;;;17.43;15.50;;;17.50;99.90;;;;;;5043580;28;20210;-55
2021/09/27 00:22:43;;;;;;;16.87;15.00;;;17.50;99.90;;;;;;5028880;28;24386;-48
2021/09/27 00:25:11;;;;;;;16.23;14.63;;;17.50;99.90;;;;;;5044481;28;20199;-56
2021/09/27 00:27:38;;;;;;;17.87;15.80;;;17.50;99.90;;;;;;5041801;28;20215;-47
2021/09/27 00:30:06;;;;;;;18.80;16.90;;;17.50;99.90;;;;;;5009212;28;1058031;-46
2021/09/27 00:32:33;;;;;;;17.50;15.80;;;17.50;99.90;;;;;;5042557;28;20195;-47
2021/09/27 00:35:00;;;;;;;17.63;15.60;;;17.50;99.90;;;;;;5038591;28;20214;-53
2021/09/27 00:37:28;;;;;;;19.47;17.47;;;17.50;99.90;;;;;;5041679;28;20756;-58
2021/09/27 00:39:55;;;;;;;18.10;16.30;;;17.50;99.90;;;;;;5031116;28;20222;-45
2021/09/27 00:42:21;;;;;;;18.20;16.30;;;17.50;99.90;;;;;;5043104;28;20269;-59
2021/09/27 00:44:48;;;;;;;18.07;16.17;;;17.50;99.90;;;;;;5044915;28;20699;-51
2021/09/27 00:47:15;;;;;;;19.43;16.87;;;17.50;99.90;;;;;;5044330;28;20223;-57
2021/09/27 00:49:42;;;;;;;18.43;16.53;;;17.50;99.90;;;;;;5036257;28;20218;-50
2021/09/27 00:52:09;;;;;;;17.87;16.17;;;17.50;99.90;;;;;;5045232;28;20195;-59
2021/09/27 00:54:37;;;;;;;19.63;16.70;;;17.50;99.90;;;;;;5027783;28;20471;-50
2021/09/27 00:57:08;;;;;;;18.07;16.27;;;17.50;99.90;;;;;;5045003;28;20679;-51
2021/09/27 00:59:37;;;;;;;21.40;18.07;;;17.50;99.90;;;;;;5035012;28;20219;-50
2021/09/27 01:02:04;;;;;;;21.30;18.93;;;17.50;99.90;;;;;;5043477;28;20214;-57
2021/09/27 01:04:30;;;;;;;20.30;17.73;;;17.50;99.90;;;;;;5036878;28;21073;-46
2021/09/27 01:07:11;;;;;;;20.63;16.90;;;17.50;99.90;;;;;;5044009;28;20222;-58
2021/09/27 01:09:57;;;;;;;19.50;17.43;;;17.50;99.90;;;;;;5024760;28;20732;-47
2021/09/27 01:12:54;;;;;;;19.10;17.07;;;17.50;99.90;;;;;;5037329;28;20191;-46
2021/09/27 01:15:30;;;;;;;20.20;18.20;;;17.50;99.90;;;;;;5008152;28;20828;-52
2021/09/27 01:18:06;;;;;;;18.07;16.37;;;17.50;99.90;;;;;;5044329;28;20245;-57
2021/09/27 01:20:53;;;;;;;18.17;16.37;;;17.50;99.90;;;;;;5037135;28;20195;-45
2021/09/27 01:23:56;;;;;;;19.40;17.30;;;17.50;99.90;;;;;;5031909;28;20277;-45
2021/09/27 01:26:37;;;;;;;21.30;18.83;;;17.50;99.90;;;;;;5010078;28;20234;-47
2021/09/27 01:29:32;;;;;;;19.33;17.43;;;17.50;99.90;;;;;;5042530;28;20964;-53
2021/09/27 01:32:21;;;;;;;19.10;17.13;;;17.50;99.90;;;;;;5042772;28;20195;-50
2021/09/27 01:35:00;;;;;;;20.93;18.57;;;17.50;99.90;;;;;;5030819;28;20211;-48
2021/09/27 01:37:34;;;;;;;20.40;17.77;;;17.50;99.90;;;;;;5044091;28;20696;-50
2021/09/27 01:40:11;;;;;;;20.13;17.73;;;17.50;99.90;;;;;;5028043;28;20207;-53
2021/09/27 01:42:44;;;;;;;23.40;18.30;;;17.50;99.90;;;;;;5044527;28;20218;-49
2021/09/27 01:45:27;;;;;;;21.57;19.33;;;17.50;99.90;;;;;;5045254;28;20210;-55
2021/09/27 01:48:06;;;;;;;20.43;18.23;;;17.50;99.90;;;;;;5041668;28;20230;-50
2021/09/27 01:50:40;;;;;;;20.23;18.23;;;17.50;99.90;;;;;;5045338;28;20610;-47
2021/09/27 01:53:14;;;;;;;18.50;16.50;;;17.50;99.90;;;;;;5040579;28;20928;-55
2021/09/27 01:55:46;;;;;;;19.77;17.80;;;17.50;99.90;;;;;;5035220;28;20206;-49
2021/09/27 01:58:19;;;;;;;18.73;16.87;;;17.50;99.90;;;;;;5041190;28;20222;-53
2021/09/27 02:00:50;;;;;;;20.00;18.03;;;17.50;99.90;;;;;;5041228;28;20529;-49
2021/09/27 02:03:26;;;;;;;20.03;17.93;;;17.50;99.90;;;;;;5043961;28;20207;-49
2021/09/27 02:06:02;;;;;;;20.27;18.07;;;17.50;99.90;;;;;;5040015;28;20198;-52
2021/09/27 02:08:38;;;;;;;19.63;17.63;;;17.50;99.90;;;;;;5036222;28;20219;-52
2021/09/27 02:11:12;;;;;;;21.73;19.50;;;17.50;99.90;;;;;;5041680;28;20199;-53
2021/09/27 02:13:47;;;;;;;19.57;17.53;;;17.50;99.90;;;;;;5026967;28;20565;-49
2021/09/27 02:16:21;;;;;;;20.70;18.10;;;17.50;99.90;;;;;;5039516;28;20205;-50
2021/09/27 02:18:53;;;;;;;20.20;17.93;;;17.50;99.90;;;;;;5040378;28;20231;-51
2021/09/27 02:21:23;;;;;;;24.07;19.63;;;17.50;99.90;;;;;;5042831;28;20196;-50
2021/09/27 02:23:56;;;;;;;24.43;20.63;;;17.50;99.90;;;;;;5032401;28;20199;-52
2021/09/27 02:26:23;;;;;;;25.33;22.70;;;17.50;99.90;;;;;;5043866;28;20219;-52
2021/09/27 02:28:50;;;;;;;26.67;23.87;;;17.60;99.90;;;;;;5024994;28;20250;-54
2021/09/27 02:31:26;;;;;;;29.77;24.43;;;17.60;99.90;;;;;;5043941;28;20203;-49
2021/09/27 02:33:59;;;;;;;26.07;22.97;;;17.60;99.90;;;;;;5040279;28;20878;-51
2021/09/27 02:36:30;;;;;;;32.77;24.87;;;17.70;99.90;;;;;;5043382;28;20612;-53
2021/09/27 02:39:02;;;;;;;25.10;22.33;;;17.70;99.90;;;;;;5024452;28;21178;-53
2021/09/27 02:41:36;;;;;;;26.17;21.67;;;17.70;99.90;;;;;;5042873;28;20203;-48
2021/09/27 02:44:04;;;;;;;24.60;21.23;;;17.60;99.90;;;;;;5028423;28;20207;-49
2021/09/27 02:46:31;;;;;;;26.97;22.27;;;17.60;99.90;;;;;;5038182;28;20565;-54
2021/09/27 02:49:09;;;;;;;24.27;21.60;;;17.60;99.90;;;;;;5041246;28;20210;-56
2021/09/27 02:51:38;;;;;;;23.60;20.03;;;17.60;99.90;;;;;;5043605;28;20211;-51
2021/09/27 02:54:07;;;;;;;22.33;19.93;;;17.60;99.90;;;;;;5042821;28;20218;-48
2021/09/27 02:56:54;;;;;;;23.33;20.83;;;17.60;99.90;;;;;;5031535;28;20206;-52
2021/09/27 02:59:28;;;;;;;23.03;18.73;;;17.60;99.90;;;;;;5040979;28;20687;-53
2021/09/27 03:02:05;;;;;;;22.50;20.10;;;17.60;99.90;;;;;;5039274;28;20217;-50
2021/09/27 03:04:46;;;;;;;22.50;20.07;;;17.60;99.90;;;;;;5036511;28;20564;-50
2021/09/27 03:07:21;;;;;;;25.60;18.83;;;17.60;99.90;;;;;;5038652;28;20219;-56
2021/09/27 03:10:03;;;;;;;20.40;18.30;;;17.60;99.90;;;;;;5040894;28;21165;-45
2021/09/27 03:12:38;;;;;;;18.93;17.03;;;17.60;99.90;;;;;;5035825;28;20199;-55
2021/09/27 03:15:39;;;;;;;20.63;18.43;;;17.60;99.90;;;;;;5036378;28;20187;-57
2021/09/27 03:18:16;;;;;;;24.57;20.17;;;17.60;99.90;;;;;;5041012;28;20238;-53
2021/09/27 03:20:58;;;;;;;24.93;21.83;;;17.50;99.90;;;;;;5040998;28;20594;-52
2021/09/27 03:23:33;;;;;;;39.03;22.87;;;17.50;99.90;;;;;;5043222;28;20273;-50
2021/09/27 03:26:10;;;;;;;25.03;19.73;;;17.50;99.90;;;;;;5032873;28;20199;-47
2021/09/27 03:28:46;;;;;;;26.27;23.43;;;17.60;99.90;;;;;;5035931;28;20230;-57
2021/09/27 03:31:19;;;;;;;30.77;24.87;;;17.50;99.90;;;;;;5038805;28;20206;-49
2021/09/27 03:34:00;;;;;;;31.53;25.90;;;17.50;99.90;;;;;;5039738;28;20215;-49
2021/09/27 03:36:45;;;;;;;30.27;25.73;;;17.50;99.90;;;;;;5034511;28;20718;-51
2021/09/27 03:39:22;;;;;;;29.10;24.03;;;17.50;99.90;;;;;;5038377;28;20564;-51
2021/09/27 03:41:52;;;;;;;33.13;26.60;;;17.50;99.90;;;;;;5030908;28;20207;-51
2021/09/27 03:44:26;;;;;;;32.57;26.50;;;17.50;99.90;;;;;;5044261;28;20192;-56
2021/09/27 03:46:59;;;;;;;31.67;26.07;;;17.50;99.90;;;;;;5034197;28;20219;-54
2021/09/27 03:49:30;;;;;;;33.57;26.83;;;17.50;99.90;;;;;;5043417;28;20227;-50
2021/09/27 03:52:03;;;;;;;29.37;26.00;;;17.50;99.90;;;;;;5041901;28;20198;-51
2021/09/27 03:54:33;;;;;;;32.63;27.37;;;17.50;99.90;;;;;;5042094;28;20722;-54
2021/09/27 03:57:06;;;;;;;32.77;26.23;;;17.50;99.90;;;;;;5033345;28;20199;-49
2021/09/27 03:59:38;;;;;;;28.97;24.60;;;17.50;99.90;;;;;;5040955;28;20226;-58
2021/09/27 04:02:10;;;;;;;30.57;25.50;;;17.50;99.90;;;;;;5026988;28;20250;-47
2021/09/27 04:04:51;;;;;;;31.03;25.23;;;17.50;99.90;;;;;;5040234;28;20195;-57
2021/09/27 04:07:26;;;;;;;31.73;24.90;;;17.50;99.90;;;;;;5037468;28;20771;-54
2021/09/27 04:10:02;;;;;;;28.10;24.73;;;17.60;99.90;;;;;;5039351;28;20202;-46
2021/09/27 04:12:37;;;;;;;27.83;24.47;;;17.60;99.90;;;;;;5040961;28;20691;-59
2021/09/27 04:15:12;;;;;;;29.20;23.87;;;17.60;99.90;;;;;;5038834;28;20199;-50
2021/09/27 04:17:52;;;;;;;31.03;24.67;;;17.60;99.90;;;;;;5018148;28;20221;-49
2021/09/27 04:20:28;;;;;;;27.00;23.60;;;17.60;99.90;;;;;;5047997;28;20195;-56
2021/09/27 04:23:09;;;;;;;28.60;24.23;;;17.60;99.90;;;;;;5033052;28;20210;-53
2021/09/27 04:25:44;;;;;;;28.67;24.40;;;17.60;99.90;;;;;;5045848;28;20210;-52
2021/09/27 04:28:30;;;;;;;28.20;23.43;;;17.60;99.90;;;;;;5030140;28;20217;-49
2021/09/27 04:31:13;;;;;;;27.27;23.53;;;17.60;99.90;;;;;;5043788;28;20206;-54
2021/09/27 04:34:03;;;;;;;27.77;23.13;;;17.60;99.90;;;;;;5039639;28;20207;-51
2021/09/27 04:36:35;;;;;;;24.67;21.93;;;17.50;99.90;;;;;;5029102;28;21437;-54
2021/09/27 04:39:08;;;;;;;28.13;23.57;;;17.60;99.90;;;;;;5045319;28;20718;-51
2021/09/27 04:42:01;;;;;;;28.00;23.27;;;17.60;99.90;;;;;;5042900;28;20208;-51
2021/09/27 04:44:54;;;;;;;31.63;22.90;;;17.60;99.90;;;;;;5024283;28;20214;-53
2021/09/27 04:47:32;;;;;;;26.13;21.67;;;17.60;99.90;;;;;;5029058;28;20218;-50
2021/09/27 04:50:13;;;;;;;28.63;22.70;;;17.60;99.90;;;;;;5031630;28;20207;-57
2021/09/27 04:52:50;;;;;;;26.27;22.83;;;17.60;99.90;;;;;;5035957;28;20207;-52
2021/09/27 04:55:35;;;;;;;24.63;22.03;;;17.60;99.90;;;;;;5033540;28;21313;-48
2021/09/27 04:58:16;;;;;;;28.73;23.03;;;17.60;99.90;;;;;;5041080;28;21475;-55
2021/09/27 05:01:01;;;;;;;27.43;23.20;;;17.60;99.90;;;;;;5037856;28;20191;-49
2021/09/27 05:03:44;;;;;;;28.30;22.73;;;17.60;99.90;;;;;;5026091;28;20225;-50
2021/09/27 05:06:24;;;;;;;25.93;22.57;;;17.60;99.90;;;;;;5037206;28;20832;-54
2021/09/27 05:09:04;;;;;;;27.27;22.20;;;17.60;99.90;;;;;;5036242;28;20245;-55
2021/09/27 05:12:13;;;;;;;26.53;23.43;;;17.60;99.90;;;;;;5033641;28;20210;-45
2021/09/27 05:14:57;;;;;;;24.73;21.33;;;17.60;99.90;;;;;;5004981;28;20222;-53
2021/09/27 05:17:34;;;;;;;26.10;21.97;;;17.60;99.90;;;;;;5041110;28;20203;-50
2021/09/27 05:20:22;;;;;;;26.47;22.47;;;17.60;99.90;;;;;;5023888;28;20204;-50
2021/09/27 05:23:03;;;;;;;25.40;22.53;;;17.60;99.90;;;;;;5042907;28;20205;-53
2021/09/27 05:26:22;;;;;;;25.00;22.30;;;17.60;99.90;;;;;;5039242;28;20199;-50
2021/09/27 05:29:03;;;;;;;28.53;24.27;;;17.50;99.90;;;;;;5002234;28;20251;-56
2021/09/27 05:31:45;;;;;;;26.43;23.67;;;17.60;99.90;;;;;;5036019;28;20213;-49
2021/09/27 05:34:22;;;;;;;26.43;23.00;;;17.60;99.90;;;;;;5023373;28;20282;-51
2021/09/27 05:37:15;;;;;;;27.80;23.77;;;17.60;99.90;;;;;;5038282;28;20203;-56
2021/09/27 05:40:00;;;;;;;26.70;23.53;;;17.60;99.90;;;;;;5034152;28;20230;-48
2021/09/27 05:42:35;;;;;;;27.33;23.63;;;17.60;99.90;;;;;;5034777;28;20210;-50
2021/09/27 05:45:18;;;;;;;25.23;22.53;;;17.60;99.90;;;;;;5035751;28;20205;-56
2021/09/27 05:47:50;;;;;;;25.93;23.23;;;17.70;99.90;;;;;;5032522;28;20229;-56
2021/09/27 05:50:24;;;;;;;29.77;23.13;;;17.70;99.90;;;;;;5023696;28;20222;-49
2021/09/27 05:53:00;;;;;;;27.27;23.20;;;17.70;99.90;;;;;;5038061;28;20604;-55
2021/09/27 05:55:34;;;;;;;29.50;24.73;;;17.70;99.90;;;;;;5036330;28;20202;-53
2021/09/27 05:58:07;;;;;;;27.23;24.33;;;17.70;99.90;;;;;;5031825;28;20296;-54
2021/09/27 06:00:44;;;;;;;28.90;24.10;;;17.70;99.90;;;;;;5040602;28;20199;-56
2021/09/27 06:03:31;;;;;;;27.87;23.97;;;17.70;99.90;;;;;;5033586;28;20202;-52
2021/09/27 06:06:08;;;;;;;26.20;21.53;;;17.70;99.90;;;;;;5031765;28;20202;-55
2021/09/27 06:08:39;;;;;;;27.57;23.93;;;17.70;99.90;;;;;;5036968;28;20226;-47
2021/09/27 06:11:13;;;;;;;25.93;22.27;;;17.80;99.90;;;;;;5032555;28;20210;-53
2021/09/27 06:13:44;;;;;;;26.30;23.53;;;17.80;99.90;;;;;;5037311;28;20202;-48
2021/09/27 06:16:24;;;;;;;27.23;22.70;;;17.80;99.90;;;;;;5032850;28;20214;-52
2021/09/27 06:19:03;;;;;;;29.77;23.70;;;17.80;99.90;;;;;;5038491;28;20215;-51
2021/09/27 06:22:05;;;;;;;29.83;24.83;;;17.80;99.90;;;;;;5031433;28;20317;-50
2021/09/27 06:24:39;;;;;;;28.27;24.20;;;17.80;99.90;;;;;;5033499;28;20304;-48
2021/09/27 06:27:11;;;;;;;33.47;25.43;;;17.80;99.90;;;;;;5034123;28;20206;-53
2021/09/27 06:29:46;;;;;;;31.47;26.40;;;17.80;99.90;;;;;;5036426;28;20227;-49
2021/09/27 06:32:22;;;;;;;30.77;26.10;;;17.80;99.90;;;;;;5026780;28;21188;-56
2021/09/27 06:34:53;;;;;;;27.10;24.20;;;17.80;99.90;;;;;;5041165;28;20218;-50
2021/09/27 06:37:21;;;;;;;29.27;24.40;;;17.80;99.90;;;;;;5023530;28;20218;-51
2021/09/27 06:39:48;;;;;;;31.63;24.83;;;17.80;99.90;;;;;;5035197;28;20206;-51
2021/09/27 06:42:16;;;;;;;28.97;24.73;;;17.80;99.90;;;;;;5035329;28;20210;-46
2021/09/27 06:44:45;;;;;;;31.60;26.53;;;17.80;99.90;;;;;;5039591;28;20207;-56
2021/09/27 06:47:12;;;;;;;32.63;25.13;;;17.80;99.90;;;;;;5042012;28;20195;-54
2021/09/27 06:49:40;;;;;;;32.07;27.53;;;17.80;99.90;;;;;;5037943;28;20215;-56
2021/09/27 06:52:07;;;;;;;33.20;26.67;;;17.80;99.90;;;;;;5039779;28;20198;-51
2021/09/27 06:54:34;;;;;;;30.90;26.40;;;17.80;99.90;;;;;;5028626;28;20305;-52
2021/09/27 06:57:00;;;;;;;33.47;27.43;;;17.80;99.90;;;;;;5029179;28;20727;-50
2021/09/27 06:59:28;;;;;;;31.23;27.57;;;17.80;99.90;;;;;;5029039;28;20547;-57
2021/09/27 07:01:54;;;;;;;35.27;27.80;;;17.80;99.90;;;;;;5043379;28;20207;-51
2021/09/27 07:04:21;;;;;;;37.43;27.90;;;17.80;99.90;;;;;;5028486;28;20203;-59
2021/09/27 07:06:49;;;;;;;34.60;27.17;;;17.80;99.90;;;;;;5032321;28;20199;-47
2021/09/27 07:09:16;;;;;;;33.07;26.63;;;17.80;99.90;;;;;;5026538;28;20211;-56
2021/09/27 07:11:43;;;;;;;34.93;27.67;;;17.80;99.90;;;;;;5026912;28;20416;-48
2021/09/27 07:14:11;;;;;;;32.53;27.27;;;17.80;99.90;;;;;;5042240;28;20213;-51
2021/09/27 07:16:38;;;;;;;31.53;26.60;;;17.80;99.90;;;;;;5032574;28;20266;-49
2021/09/27 07:19:05;;;;;;;33.90;26.63;;;17.80;99.90;;;;;;5034620;28;20226;-51
2021/09/27 07:21:32;;;;;;;35.40;28.50;;;17.80;99.90;;;;;;5035566;28;20206;-47
2021/09/27 07:24:01;;;;;;;33.47;27.77;;;17.80;99.90;;;;;;5041058;28;20208;-50
2021/09/27 07:26:27;;;;;;;33.23;27.00;;;17.90;99.90;;;;;;5026477;28;20207;-53
2021/09/27 07:28:56;;;;;;;33.80;27.70;;;17.90;99.90;;;;;;5025775;28;20911;-53
2021/09/27 07:31:26;;;;;;;32.90;27.60;;;17.90;99.90;;;;;;5026208;28;20210;-49
2021/09/27 07:33:53;;;;;;;37.47;29.63;;;17.90;99.90;;;;;;5027140;28;20288;-60
2021/09/27 07:36:19;;;;;;;33.73;27.60;;;17.90;99.90;;;;;;5035176;28;20195;-50
2021/09/27 07:38:46;;;;;;;35.00;28.80;;;17.90;99.90;;;;;;5039971;28;20211;-59
2021/09/27 07:41:14;;;;;;;36.37;30.33;;;17.90;99.90;;;;;;5022377;28;20199;-52
2021/09/27 07:43:42;;;;;;;41.03;29.40;;;17.90;99.90;;;;;;5031250;28;20294;-47
2021/09/27 07:46:09;;;;;;;34.40;28.97;;;18.00;99.90;;;;;;5020907;28;20207;-51
2021/09/27 07:48:36;;;;;;;35.23;28.73;;;18.00;99.90;;;;;;5042321;28;20223;-49
2021/09/27 07:51:02;;;;;;;39.33;28.60;;;18.00;99.90;;;;;;5028605;28;21652;-57
2021/09/27 07:53:29;;;;;;;37.70;28.13;;;18.00;99.90;;;;;;5045515;28;20191;-56
2021/09/27 07:55:56;;;;;;;39.93;29.03;;;18.10;99.90;;;;;;5027549;28;20258;-57
2021/09/27 07:58:24;;;;;;;38.03;28.57;;;18.10;99.90;;;;;;5037839;28;20615;-56
2021/09/27 08:00:52;;;;;;;35.30;28.10;;;18.10;99.90;;;;;;5041208;28;20207;-48
2021/09/27 08:03:19;;;;;;;34.97;29.40;;;18.10;99.90;;;;;;5043023;28;20203;-54
2021/09/27 08:05:46;;;;;;;38.57;29.27;;;18.20;99.90;;;;;;5032929;28;20669;-50
2021/09/27 08:08:13;;;;;;;40.63;28.63;;;18.20;99.90;;;;;;5042012;28;20252;-52
2021/09/27 08:10:41;;;;;;;36.60;28.07;;;18.20;99.90;;;;;;5033182;28;20203;-54
2021/09/27 08:13:09;;;;;;;41.57;30.47;;;18.20;99.90;;;;;;5016751;28;20207;-53
2021/09/27 08:15:39;;;;;;;34.47;28.23;;;18.20;99.90;;;;;;5043699;28;20595;-51
2021/09/27 08:18:08;;;;;;;39.47;29.63;;;18.20;99.90;;;;;;5032220;28;20235;-51
2021/09/27 08:20:38;;;;;;;33.00;27.83;;;18.20;99.90;;;;;;5031233;28;20266;-54
2021/09/27 08:23:04;;;;;;;35.73;29.47;;;18.30;99.90;;;;;;5035612;28;20203;-58
2021/09/27 08:25:32;;;;;;;36.17;28.13;;;18.30;99.90;;;;;;5044489;28;20198;-48
2021/09/27 08:28:00;;;;;;;36.77;28.00;;;18.30;99.90;;;;;;5025325;28;20318;-51
2021/09/27 08:30:29;;;;;;;39.77;29.67;;;18.40;99.90;;;;;;5040128;28;20281;-54
2021/09/27 08:32:59;;;;;;;37.77;28.00;;;18.30;99.90;;;;;;5042685;28;20207;-51
2021/09/27 08:35:26;;;;;;;37.50;28.60;;;18.30;99.90;;;;;;5044678;28;20929;-54
2021/09/27 08:37:54;;;;;;;39.30;29.07;;;18.30;99.90;;;;;;5034286;28;20223;-56
2021/09/27 08:40:37;;;;;;;37.27;28.00;;;18.30;99.90;;;;;;5040394;28;20191;-53
2021/09/27 08:43:13;;;;;;;36.43;28.37;;;18.30;99.90;;;;;;5027526;28;20214;-56
2021/09/27 08:45:41;;;;;;;38.67;29.23;;;18.40;99.90;;;;;;5040643;28;20203;-49
2021/09/27 08:48:23;;;;;;;38.13;28.33;;;18.30;99.90;;;;;;5036650;28;20219;-58
2021/09/27 08:50:50;;;;;;;41.90;28.00;;;18.30;99.90;;;;;;5043425;28;20191;-53
2021/09/27 08:53:24;;;;;;;35.07;28.43;;;18.30;99.90;;;;;;5025137;28;20200;-52
2021/09/27 08:55:52;;;;;;;35.43;28.83;;;18.30;99.90;;;;;;5044171;28;20196;-47
2021/09/27 08:58:27;;;;;;;35.33;27.13;;;18.30;99.90;;;;;;5018934;28;20223;-49
2021/09/27 09:00:59;;;;;;;32.67;26.53;;;18.30;99.90;;;;;;5032084;28;20611;-54
2021/09/27 09:03:32;;;;;;;38.50;28.73;;;18.30;99.90;;;;;;5037673;28;20192;-52
2021/09/27 09:06:05;;;;;;;38.73;27.63;;;18.20;99.90;;;;;;5036782;28;20207;-47
2021/09/27 09:08:41;;;;;;;35.80;27.93;;;18.20;99.90;;;;;;5035300;28;20230;-53
2021/09/27 09:11:14;;;;;;;34.70;26.90;;;18.30;99.90;;;;;;5035395;28;20221;-53
2021/09/27 09:13:43;;;;;;;34.60;28.47;;;18.20;99.90;;;;;;5032077;28;20206;-52
2021/09/27 09:16:14;;;;;;;36.90;29.30;;;18.30;99.90;;;;;;5031947;28;20211;-50
2021/09/27 09:18:47;;;;;;;36.50;29.77;;;18.30;99.90;;;;;;5044693;28;20309;-54
2021/09/27 09:21:19;;;;;;;33.03;28.10;;;18.40;99.90;;;;;;5037649;28;20206;-54
2021/09/27 09:23:51;;;;;;;37.57;29.00;;;18.40;99.90;;;;;;5036235;28;20584;-48
2021/09/27 09:26:22;;;;;;;33.27;26.83;;;18.50;99.90;;;;;;5039171;28;20337;-55
2021/09/27 09:28:51;;;;;;;34.17;27.03;;;18.60;99.90;;;;;;5030479;28;20227;-47
2021/09/27 09:31:21;;;;;;;36.87;27.93;;;18.60;99.90;;;;;;5033255;28;22863;-52
2021/09/27 09:33:53;;;;;;;35.70;28.33;;;18.70;99.90;;;;;;5044064;28;20207;-54
2021/09/27 09:36:23;;;;;;;37.93;28.83;;;18.80;99.90;;;;;;5038366;28;20234;-52
2021/09/27 09:38:51;;;;;;;33.73;27.23;;;18.90;99.90;;;;;;5043315;28;20207;-52
2021/09/27 09:41:18;;;;;;;34.97;26.40;;;18.90;99.90;;;;;;5031811;28;20195;-51
2021/09/27 09:43:48;;;;;;;34.83;27.90;;;19.00;99.90;;;;;;5027564;28;20215;-53
2021/09/27 09:46:28;;;;;;;34.93;28.80;;;19.10;99.90;;;;;;5039228;28;20210;-57
2021/09/27 09:49:07;;;;;;;33.50;26.47;;;19.10;99.90;;;;;;5034440;28;20219;-51
2021/09/27 09:51:39;;;;;;;30.10;26.07;;;19.10;99.90;;;;;;5041994;28;20211;-57
2021/09/27 09:54:16;;;;;;;31.60;27.33;;;19.20;99.90;;;;;;5042114;28;20199;-54
2021/09/27 09:56:47;;;;;;;32.53;26.10;;;19.30;99.90;;;;;;5033945;28;20207;-57
2021/09/27 09:59:23;;;;;;;33.63;26.13;;;19.30;99.90;;;;;;5019912;28;20238;-50
2021/09/27 10:01:54;;;;;;;32.83;27.13;;;19.40;99.90;;;;;;5040634;28;20656;-53
2021/09/27 10:04:24;;;;;;;35.27;26.03;;;19.50;99.90;;;;;;5033876;28;20231;-51
2021/09/27 10:06:58;;;;;;;37.17;27.47;;;19.50;99.90;;;;;;5038839;28;20707;-52
2021/09/27 10:09:28;;;;;;;29.97;25.50;;;19.60;99.90;;;;;;5038405;28;20223;-49
2021/09/27 10:11:57;;;;;;;31.97;27.37;;;19.60;99.90;;;;;;5032699;28;20207;-50
2021/09/27 10:14:33;;;;;;;30.90;26.37;;;19.60;99.90;;;;;;5025098;28;20214;-53
2021/09/27 10:17:12;;;;;;;36.10;27.50;;;19.60;99.90;;;;;;5038218;28;20203;-55
2021/09/27 10:19:53;;;;;;;31.37;25.63;;;19.60;99.90;;;;;;5030438;28;20232;-55
2021/09/27 10:22:24;;;;;;;32.47;24.90;;;19.60;99.90;;;;;;5036879;28;20203;-53
2021/09/27 10:24:53;;;;;;;31.70;25.90;;;19.70;99.90;;;;;;5044116;28;20688;-51
2021/09/27 10:27:25;;;;;;;30.33;25.47;;;19.80;99.90;;;;;;5027117;28;20207;-51
2021/09/27 10:29:56;;;;;;;33.87;25.27;;;19.90;99.90;;;;;;5027334;28;20234;-53
2021/09/27 10:32:37;;;;;;;31.60;24.07;;;19.90;99.90;;;;;;5026878;28;20203;-52
2021/09/27 10:35:10;;;;;;;30.97;24.87;;;20.10;99.90;;;;;;5035952;28;20206;-53
2021/09/27 10:37:37;;;;;;;27.77;23.67;;;20.00;99.90;;;;;;5030762;28;20218;-51
2021/09/27 10:40:10;;;;;;;26.87;23.83;;;20.10;99.90;;;;;;5037062;28;20562;-54
2021/09/27 10:42:42;;;;;;;29.47;25.27;;;20.20;99.90;;;;;;5031811;28;20676;-51
2021/09/27 10:45:12;;;;;;;26.70;23.33;;;20.10;99.90;;;;;;5018913;28;20474;-51
2021/09/27 10:47:43;;;;;;;29.33;24.03;;;20.10;99.90;;;;;;5030182;28;20580;-51
2021/09/27 10:50:16;;;;;;;32.57;22.90;;;20.10;99.90;;;;;;5026826;28;20807;-55
2021/09/27 10:52:46;;;;;;;25.47;21.77;;;20.10;99.90;;;;;;5035989;28;20691;-49
2021/09/27 10:55:24;;;;;;;29.67;23.47;;;20.20;99.90;;;;;;5038367;28;20203;-54
2021/09/27 10:57:54;;;;;;;27.87;22.80;;;20.30;99.90;;;;;;5029322;28;20215;-52
2021/09/27 11:00:34;;;;;;;27.07;21.63;;;20.40;99.90;;;;;;5035583;28;20199;-54
2021/09/27 11:03:07;;;;;;;23.97;20.47;;;20.50;99.90;;;;;;5025309;28;20395;-55
2021/09/27 11:05:50;;;;;;;25.77;21.97;;;20.50;99.90;;;;;;5036997;28;20245;-51
2021/09/27 11:08:34;;;;;;;23.07;20.53;;;20.50;99.90;;;;;;5034726;28;20215;-55
2021/09/27 11:11:16;;;;;;;25.30;21.37;;;20.50;99.90;;;;;;5038178;28;20219;-56
2021/09/27 11:13:44;;;;;;;23.50;20.93;;;20.60;99.90;;;;;;5027296;28;20195;-51
2021/09/27 11:16:16;;;;;;;28.90;21.37;;;20.60;99.90;;;;;;5040732;28;20937;-54
2021/09/27 11:18:54;;;;;;;26.70;21.23;;;20.70;99.90;;;;;;5025469;28;20229;-49
2021/09/27 11:21:41;;;;;;;23.53;20.07;;;20.80;99.90;;;;;;5034920;28;20207;-48
2021/09/27 11:24:25;;;;;;;26.10;20.60;;;20.80;99.90;;;;;;5036766;28;20280;-51
2021/09/27 11:27:11;;;;;;;23.80;19.67;;;20.80;99.90;;;;;;5033250;28;20194;-55
2021/09/27 11:29:51;;;;;;;22.57;20.20;;;20.90;99.90;;;;;;5038128;28;20219;-55
2021/09/27 11:32:44;;;;;;;21.63;18.73;;;20.90;99.90;;;;;;5032030;28;20581;-54
2021/09/27 11:35:27;;;;;;;22.77;18.53;;;21.00;99.90;;;;;;5043479;28;20315;-53
2021/09/27 11:38:31;;;;;;;23.63;19.53;;;21.00;99.90;;;;;;5032732;28;20306;-52
2021/09/27 11:41:24;;;;;;;23.90;18.93;;;21.10;99.90;;;;;;5028691;28;20199;-53
2021/09/27 11:44:00;;;;;;;24.27;19.07;;;21.00;99.90;;;;;;5033169;28;20218;-50
2021/09/27 11:46:32;;;;;;;21.80;17.70;;;21.00;99.90;;;;;;5043766;28;20207;-56
2021/09/27 11:49:03;;;;;;;21.27;17.55;;;21.00;99.90;;;;;;5025823;28;21017;-52
2021/09/27 11:51:41;;;;;;;18.77;16.77;;;21.10;99.90;;;;;;5039980;28;20277;-45
2021/09/27 11:54:29;;;;;;;20.33;17.27;;;21.10;99.90;;;;;;5037491;28;20211;-51
2021/09/27 11:57:05;;;;;;;17.30;15.13;;;21.10;99.90;;;;;;5041652;28;20234;-54
2021/09/27 11:59:41;;;;;;;18.83;15.15;;;21.20;99.90;;;;;;5038690;28;20779;-55
2021/09/27 12:02:18;;;;;;;15.05;13.65;;;21.30;99.90;;;;;;5040119;28;20202;-51
2021/09/27 12:05:00;;;;;;;14.27;12.98;;;21.40;99.90;;;;;;5029425;28;20278;-58
2021/09/27 12:07:39;;;;;;;14.90;13.43;;;21.50;99.90;;;;;;5041995;28;20555;-51
2021/09/27 12:10:10;;;;;;;14.70;13.27;;;21.50;99.90;;;;;;5035440;28;20230;-46
2021/09/27 12:12:40;;;;;;;14.45;13.05;;;21.60;99.90;;;;;;5045528;28;20199;-56
2021/09/27 12:15:08;;;;;;;16.45;13.13;;;21.50;99.90;;;;;;5035403;28;20199;-47
2021/09/27 12:17:39;;;;;;;13.82;12.52;;;21.50;99.90;;;;;;5037387;28;20257;-57
2021/09/27 12:20:10;;;;;;;15.05;13.57;;;21.50;99.90;;;;;;5037333;28;20187;-51
2021/09/27 12:22:45;;;;;;;16.05;14.18;;;21.50;99.90;;;;;;5036990;28;20225;-57
2021/09/27 12:25:21;;;;;;;16.77;14.23;;;21.50;99.90;;;;;;5041491;28;20198;-49
2021/09/27 12:27:52;;;;;;;16.45;14.75;;;21.70;99.90;;;;;;5034423;28;20219;-58
2021/09/27 12:30:23;;;;;;;16.00;14.55;;;21.80;99.90;;;;;;5032881;28;20218;-53
2021/09/27 12:32:53;;;;;;;15.40;13.93;;;21.70;99.90;;;;;;5023828;28;20187;-55
2021/09/27 12:35:25;;;;;;;15.35;13.88;;;21.60;99.90;;;;;;5039942;28;20679;-50
2021/09/27 12:37:55;;;;;;;14.45;12.60;;;21.50;99.90;;;;;;5037817;28;20219;-57
2021/09/27 12:40:27;;;;;;;14.68;13.15;;;21.40;99.90;;;;;;5041475;28;20572;-51
2021/09/27 12:43:02;;;;;;;14.15;12.85;;;21.50;99.90;;;;;;5041204;28;20195;-58
2021/09/27 12:45:32;;;;;;;13.52;12.32;;;21.50;99.90;;;;;;5037057;28;20190;-55
2021/09/27 12:48:04;;;;;;;14.85;13.45;;;21.50;99.90;;;;;;5037636;28;20561;-52
2021/09/27 12:50:31;;;;;;;13.15;11.63;;;21.50;99.90;;;;;;5027080;28;20219;-51
2021/09/27 12:53:02;;;;;;;12.82;11.52;;;21.50;99.90;;;;;;5044674;28;20192;-54
2021/09/27 12:55:38;;;;;;;13.63;12.32;;;21.50;99.90;;;;;;5035772;28;20210;-51
2021/09/27 12:58:09;;;;;;;12.82;11.63;;;21.60;99.90;;;;;;5043258;28;20218;-55
2021/09/27 13:00:42;;;;;;;14.57;12.75;;;21.60;99.90;;;;;;5037240;28;20191;-52